Time;durP1;ratioP1;P1;durP2;ratioP2;P2;SDS_P1;SDS_P2;PMS_P1;PMS_P2;Temp;Humidity;BMP_temperature;BMP_pressure;BME280_temperature;BME280_humidity;BME280_pressure;Samples;Min_cycle;Max_cycle;Signal;HPM_P1;HPM_P2
2022/09/18 00:03:17;;;;;;;0.08;0.00;;;18.50;53.60;20.80;94052.00;;;;10530555;27;45250;-60
2022/09/18 00:08:38;;;;;;;0.15;0.10;;;18.50;53.60;20.80;94045.00;;;;10508858;27;45158;-60
2022/09/18 00:13:58;;;;;;;0.15;0.00;;;18.50;53.60;20.80;94054.00;;;;10510324;27;45913;-59
2022/09/18 00:19:21;;;;;;;0.10;0.00;;;18.50;53.60;20.70;94038.00;;;;10509744;27;45195;-60
2022/09/18 00:24:42;;;;;;;0.32;0.10;;;18.50;53.70;20.80;94049.00;;;;10515757;27;45230;-59
2022/09/18 00:30:02;;;;;;;0.47;0.10;;;18.50;53.70;20.70;94039.00;;;;10551475;27;45320;-60
2022/09/18 00:35:24;;;;;;;0.43;0.10;;;18.50;53.60;20.70;94037.00;;;;10538199;27;45788;-60
2022/09/18 00:40:45;;;;;;;0.88;0.10;;;18.50;53.70;20.70;94025.00;;;;10559354;27;45225;-59
2022/09/18 00:46:08;;;;;;;0.20;0.10;;;18.50;53.60;20.70;94015.00;;;;10558492;27;45154;-59
2022/09/18 00:51:33;;;;;;;0.13;0.00;;;18.50;53.60;20.70;94006.00;;;;10558602;27;45177;-59
2022/09/18 00:56:58;;;;;;;0.10;0.00;;;18.50;53.60;20.70;94006.00;;;;10527882;27;45166;-60
2022/09/18 01:02:19;;;;;;;0.30;0.10;;;18.50;53.70;20.70;94009.00;;;;10525811;27;45911;-60
2022/09/18 01:07:58;;;;;;;0.30;0.10;;;18.50;53.60;20.70;93995.00;;;;10525858;27;45734;-59
2022/09/18 01:13:31;;;;;;;0.15;0.10;;;18.50;53.60;20.70;94018.00;;;;10515377;28;45276;-59
2022/09/18 01:19:02;;;;;;;0.10;0.03;;;18.50;53.60;20.70;94022.00;;;;10516052;28;45190;-60
2022/09/18 01:24:45;;;;;;;0.28;0.10;;;18.50;53.70;20.70;94024.00;;;;10545160;27;45901;-60
2022/09/18 01:30:10;;;;;;;0.15;0.10;;;18.50;53.60;20.70;94031.00;;;;10557678;27;45207;-61
2022/09/18 01:35:38;;;;;;;0.10;0.10;;;18.40;53.60;20.70;94030.00;;;;10529566;27;47621;-60
2022/09/18 01:41:03;;;;;;;0.10;0.10;;;18.40;53.70;20.60;94039.00;;;;10515052;28;45222;-60
2022/09/18 01:46:25;;;;;;;0.10;0.00;;;18.40;53.80;20.60;94025.00;;;;10515192;27;45891;-59
2022/09/18 01:51:53;;;;;;;0.00;0.00;;;18.40;53.80;20.60;94034.00;;;;10515283;28;45185;-59
2022/09/18 01:57:19;;;;;;;0.30;0.00;;;18.40;53.80;20.60;94030.00;;;;10514649;28;46055;-60
2022/09/18 02:02:48;;;;;;;0.00;0.00;;;18.40;53.80;20.60;94027.00;;;;10526127;27;45778;-59
2022/09/18 02:08:15;;;;;;;0.10;0.00;;;18.40;53.90;20.60;94040.00;;;;10540427;27;45213;-60
2022/09/18 02:13:40;;;;;;;0.38;0.00;;;18.40;54.00;20.60;94041.00;;;;10514641;27;45244;-60
2022/09/18 02:19:06;;;;;;;0.30;0.10;;;18.40;54.00;20.60;94046.00;;;;10513496;27;45160;-59
2022/09/18 02:24:32;;;;;;;0.00;0.00;;;18.40;54.00;20.60;94058.00;;;;10517494;27;45425;-59
2022/09/18 02:29:55;;;;;;;0.08;0.00;;;18.40;54.10;20.60;94051.00;;;;10555157;27;45149;-60
2022/09/18 02:35:17;;;;;;;0.00;0.00;;;18.40;54.10;20.60;94037.00;;;;10529707;27;45765;-59
2022/09/18 02:40:51;;;;;;;0.10;0.10;;;18.40;54.10;20.60;94036.00;;;;10513259;28;45220;-60
2022/09/18 02:46:22;;;;;;;0.68;0.10;;;18.40;54.10;20.60;94038.00;;;;10512964;27;45169;-60
2022/09/18 02:51:53;;;;;;;0.17;0.03;;;18.40;54.10;20.60;94033.00;;;;10513612;28;45139;-60
2022/09/18 02:57:19;;;;;;;0.85;0.10;;;18.40;54.10;20.60;94054.00;;;;10512078;27;45830;-59
2022/09/18 03:02:39;;;;;;;0.00;0.00;;;18.40;54.20;20.60;94052.00;;;;10528817;27;45204;-61
2022/09/18 03:08:01;;;;;;;0.00;0.00;;;18.40;54.20;20.60;94044.00;;;;10510137;27;45372;-60
2022/09/18 03:13:22;;;;;;;0.00;0.00;;;18.40;54.20;20.60;94039.00;;;;10534399;27;45177;-59
2022/09/18 03:18:42;;;;;;;0.05;0.00;;;18.40;54.30;20.60;94037.00;;;;10535192;27;45897;-60
2022/09/18 03:24:05;;;;;;;0.35;0.10;;;18.40;54.20;20.60;94030.00;;;;10521369;27;45865;-60
2022/09/18 03:29:25;;;;;;;0.10;0.00;;;18.40;54.30;20.60;94028.00;;;;10510896;28;45283;-61
2022/09/18 03:34:46;;;;;;;0.52;0.10;;;18.40;54.30;20.60;94036.00;;;;10522445;27;45913;-60
2022/09/18 03:40:09;;;;;;;0.20;0.10;;;18.40;55.00;20.60;94055.00;;;;10545016;27;45271;-59
2022/09/18 03:45:30;;;;;;;0.05;0.05;;;18.40;54.30;20.60;94051.00;;;;10552853;27;45793;-60
2022/09/18 03:50:51;;;;;;;0.28;0.10;;;18.40;54.30;20.60;94053.00;;;;10553629;27;45752;-60
2022/09/18 03:56:13;;;;;;;0.20;0.10;;;18.40;54.30;20.60;94049.00;;;;10553210;27;45445;-60
2022/09/18 04:01:33;;;;;;;0.20;0.00;;;18.30;54.30;20.60;94051.00;;;;10552984;27;45905;-59
2022/09/18 04:06:54;;;;;;;0.05;0.00;;;18.40;54.40;20.60;94048.00;;;;10518968;27;45315;-61
2022/09/18 04:12:16;;;;;;;0.10;0.10;;;18.40;54.40;20.70;94050.00;;;;10514677;27;45229;-59
2022/09/18 04:17:37;;;;;;;0.20;0.00;;;18.60;54.30;20.80;94047.00;;;;10516847;27;45110;-60
2022/09/18 04:22:57;;;;;;;0.38;0.10;;;18.60;54.20;20.80;94032.00;;;;10548985;27;45468;-59
2022/09/18 04:28:19;;;;;;;0.28;0.05;;;18.70;54.10;20.90;94046.00;;;;10559324;27;45334;-60
2022/09/18 04:33:40;;;;;;;0.32;0.00;;;18.80;54.10;20.90;94023.00;;;;10547429;27;45472;-60
2022/09/18 04:39:01;;;;;;;0.00;0.00;;;18.90;54.10;21.00;94031.00;;;;10557271;27;45379;-61
2022/09/18 04:44:23;;;;;;;0.20;0.00;;;18.90;54.00;21.00;94024.00;;;;10559277;27;45383;-60
2022/09/18 04:49:43;;;;;;;0.03;0.00;;;18.90;54.00;21.00;94038.00;;;;10559023;27;45230;-60
2022/09/18 04:55:05;;;;;;;0.13;0.10;;;19.00;54.00;21.10;94048.00;;;;10558415;27;45690;-59
2022/09/18 05:00:27;;;;;;;0.10;0.00;;;19.00;54.00;21.10;94040.00;;;;10558026;27;45405;-60
2022/09/18 05:05:48;;;;;;;0.13;0.03;;;19.00;54.00;21.10;94030.00;;;;10533129;27;45266;-59
2022/09/18 05:11:08;;;;;;;0.03;0.03;;;19.10;54.00;21.20;94051.00;;;;10515784;27;45158;-60
2022/09/18 05:16:30;;;;;;;0.08;0.00;;;19.10;54.60;21.20;94047.00;;;;10514722;27;45155;-60
2022/09/18 05:21:51;;;;;;;0.45;0.10;;;19.10;53.90;21.20;94064.00;;;;10515375;27;45196;-59
2022/09/18 05:27:12;;;;;;;0.30;0.00;;;19.20;53.90;21.30;94062.00;;;;10541954;27;45240;-60
2022/09/18 05:32:34;;;;;;;0.00;0.00;;;19.20;53.80;21.30;94066.00;;;;10555229;27;45942;-59
2022/09/18 05:37:55;;;;;;;0.00;0.00;;;19.20;53.80;21.30;94065.00;;;;10514765;27;45512;-60
2022/09/18 05:43:16;;;;;;;0.00;0.00;;;19.30;53.90;21.40;94069.00;;;;10515000;27;45180;-60
2022/09/18 05:48:38;;;;;;;0.20;0.05;;;19.30;53.80;21.40;94078.00;;;;10543346;27;45496;-60
2022/09/18 05:53:59;;;;;;;0.08;0.00;;;19.30;53.70;21.40;94092.00;;;;10557328;27;45643;-60
2022/09/18 05:59:20;;;;;;;0.10;0.00;;;19.30;53.70;21.40;94101.00;;;;10556296;27;45719;-62
2022/09/18 06:04:42;;;;;;;0.00;0.00;;;19.40;53.80;21.40;94085.00;;;;10543106;27;45202;-60
2022/09/18 06:10:03;;;;;;;0.15;0.00;;;19.40;53.70;21.50;94113.00;;;;10545363;27;45144;-60
2022/09/18 06:15:23;;;;;;;0.00;0.00;;;19.40;53.70;21.50;94105.00;;;;10556838;27;45664;-60
2022/09/18 06:20:53;;;;;;;0.28;0.00;;;19.40;53.70;21.50;94124.00;;;;10553298;27;45524;-60
2022/09/18 06:26:14;;;;;;;0.10;0.00;;;19.40;53.70;21.50;94121.00;;;;10522148;27;45312;-60
2022/09/18 06:31:35;;;;;;;0.00;0.00;;;19.40;53.70;21.50;94120.00;;;;10531463;27;45262;-60
2022/09/18 06:36:57;;;;;;;0.45;0.20;;;19.40;53.60;21.60;94121.00;;;;10514539;27;45844;-60
2022/09/18 06:42:17;;;;;;;0.10;0.00;;;19.50;53.70;21.60;94128.00;;;;10532646;27;45226;-60
2022/09/18 06:47:38;;;;;;;0.00;0.00;;;19.50;53.60;21.60;94132.00;;;;10533123;27;45295;-60
2022/09/18 06:53:03;;;;;;;0.03;0.00;;;19.50;53.60;21.60;94113.00;;;;10510962;27;45339;-61
2022/09/18 06:58:24;;;;;;;0.03;0.00;;;19.50;53.60;21.60;94124.00;;;;10510917;27;45177;-60
2022/09/18 07:03:44;;;;;;;0.08;0.03;;;19.50;53.60;21.60;94124.00;;;;10512291;27;45263;-60
2022/09/18 07:09:06;;;;;;;0.30;0.00;;;19.50;53.50;21.70;94127.00;;;;10522936;27;45200;-60
2022/09/18 07:14:27;;;;;;;0.17;0.00;;;19.50;53.40;21.70;94127.00;;;;10511698;27;45263;-60
2022/09/18 07:19:48;;;;;;;0.20;0.00;;;19.50;53.40;21.70;94117.00;;;;10512134;27;46076;-60
2022/09/18 07:25:10;;;;;;;0.25;0.00;;;19.50;53.60;21.70;94118.00;;;;10521322;27;45794;-59
2022/09/18 07:30:31;;;;;;;0.08;0.00;;;19.50;53.40;21.70;94115.00;;;;10512006;27;45213;-60
2022/09/18 07:35:51;;;;;;;0.00;0.00;;;19.60;53.60;21.70;94119.00;;;;10522228;27;45827;-60
2022/09/18 07:41:13;;;;;;;0.00;0.00;;;19.60;53.50;21.70;94130.00;;;;10533847;27;45217;-60
2022/09/18 07:46:34;;;;;;;0.22;0.00;;;19.50;53.40;21.70;94118.00;;;;10519017;27;45161;-62
2022/09/18 07:51:54;;;;;;;0.35;0.00;;;19.60;53.50;21.70;94128.00;;;;10518438;27;45141;-60
2022/09/18 07:57:16;;;;;;;3.50;0.20;;;19.60;53.40;21.30;94121.00;;;;10531714;27;45230;-65
2022/09/18 08:02:36;;;;;;;0.32;0.10;;;19.40;48.50;20.70;94134.00;;;;10535117;27;45288;-59
2022/09/18 08:08:03;;;;;;;1.00;0.17;;;18.60;48.70;21.10;94132.00;;;;10521076;27;45121;-60
2022/09/18 08:13:25;;;;;;;0.57;0.10;;;18.90;49.10;21.20;94142.00;;;;10522507;27;45384;-59
2022/09/18 08:18:46;;;;;;;0.93;0.10;;;19.00;49.10;21.20;94130.00;;;;10533901;27;45146;-60
2022/09/18 08:24:07;;;;;;;1.55;0.30;;;19.00;49.20;21.30;94121.00;;;;10519983;27;45227;-58
2022/09/18 08:29:29;;;;;;;1.20;0.20;;;19.10;49.10;21.30;94125.00;;;;10558652;27;45790;-59
2022/09/18 08:34:49;;;;;;;0.93;0.20;;;19.20;49.30;21.30;94141.00;;;;10535439;27;46128;-60
2022/09/18 08:40:13;;;;;;;1.13;0.10;;;19.20;49.30;21.40;94138.00;;;;10517052;28;45257;-60
2022/09/18 08:45:50;;;;;;;1.92;0.20;;;19.20;49.40;21.40;94136.00;;;;10541730;27;45922;-59
2022/09/18 08:51:18;;;;;;;;;;;19.20;49.80;21.40;94141.00;;;;10526139;27;45290;-62
2022/09/18 08:56:39;;;;;;;;;;;19.20;49.30;21.40;94139.00;;;;10534441;27;45237;-59
2022/09/18 09:02:18;;;;;;;1.25;0.30;;;19.20;49.50;21.40;94122.00;;;;10515285;27;45317;-60
2022/09/18 09:08:15;;;;;;;2.25;0.55;;;19.30;49.90;21.40;94122.00;;;;10521269;27;45185;-60
2022/09/18 09:14:12;;;;;;;3.05;0.50;;;19.30;49.80;21.40;94130.00;;;;10502287;27;45259;-58
2022/09/18 09:19:43;;;;;;;3.00;0.63;;;19.30;49.80;21.40;94133.00;;;;10537552;27;45196;-60
2022/09/18 09:25:19;;;;;;;3.40;1.15;;;19.30;49.80;21.40;94136.00;;;;10523311;27;45369;-60
2022/09/18 09:30:42;;;;;;;5.45;1.25;;;19.30;50.60;21.50;94133.00;;;;10542224;27;45367;-59
2022/09/18 09:36:09;;;;;;;6.55;1.23;;;19.30;51.00;21.50;94123.00;;;;10532411;27;45209;-60
2022/09/18 09:41:38;;;;;;;8.45;1.30;;;19.40;51.30;21.50;94136.00;;;;10530499;27;45270;-59
2022/09/18 09:47:10;;;;;;;5.38;1.48;;;19.40;51.50;21.50;94122.00;;;;10544614;27;45552;-60
2022/09/18 09:52:33;;;;;;;6.38;1.30;;;19.40;51.70;21.50;94116.00;;;;10559755;27;45360;-59
2022/09/18 09:58:07;;;;;;;7.63;1.40;;;19.40;51.90;21.50;94115.00;;;;10528323;27;45676;-59
2022/09/18 10:04:06;;;;;;;6.28;1.48;;;19.40;52.00;21.60;94131.00;;;;10511954;27;45138;-58
2022/09/18 10:09:39;;;;;;;4.35;1.00;;;19.40;52.00;21.60;94119.00;;;;10512466;28;45143;-61
2022/09/18 10:15:06;;;;;;;6.78;1.30;;;19.40;52.20;21.60;94120.00;;;;10509342;27;45270;-59
2022/09/18 10:20:30;;;;;;;6.65;1.45;;;19.40;52.30;21.60;94119.00;;;;10527647;27;45100;-58
2022/09/18 10:25:56;;;;;;;5.22;1.48;;;19.50;52.70;21.60;94113.00;;;;10542341;27;45228;-59
2022/09/18 10:31:18;;;;;;;7.13;1.50;;;19.50;52.70;21.60;94095.00;;;;10530728;27;45197;-59
2022/09/18 10:36:42;;;;;;;3.30;1.23;;;19.50;52.60;21.70;94094.00;;;;10531488;27;46025;-61
2022/09/18 10:42:06;;;;;;;4.25;1.38;;;19.50;52.70;21.70;94089.00;;;;10532524;27;45244;-62
2022/09/18 10:47:29;;;;;;;5.50;1.73;;;19.50;52.70;21.70;94087.00;;;;10522315;27;45234;-59
2022/09/18 10:52:52;;;;;;;6.50;1.63;;;19.60;52.80;21.70;94073.00;;;;10518046;27;45246;-59
2022/09/18 10:58:15;;;;;;;10.20;1.92;;;19.60;53.00;21.80;94076.00;;;;10538366;27;45194;-59
2022/09/18 11:03:45;;;;;;;7.45;2.03;;;19.60;53.00;21.80;94068.00;;;;10512314;27;45168;-59
2022/09/18 11:09:10;;;;;;;4.47;1.50;;;19.70;53.00;21.80;94069.00;;;;10511520;27;45317;-58
2022/09/18 11:14:41;;;;;;;6.70;1.60;;;19.60;53.00;21.80;94066.00;;;;10540647;27;45868;-61
2022/09/18 11:20:04;;;;;;;6.20;1.60;;;19.70;53.10;21.80;94068.00;;;;10553286;27;45208;-59
2022/09/18 11:25:27;;;;;;;4.93;1.42;;;19.60;53.10;21.80;94053.00;;;;10528893;27;45373;-59
2022/09/18 11:30:56;;;;;;;6.63;1.75;;;19.60;53.30;21.80;94043.00;;;;10527890;27;45502;-59
2022/09/18 11:36:25;;;;;;;4.30;1.40;;;19.60;53.20;21.80;94042.00;;;;10513843;28;45174;-60
2022/09/18 11:41:49;;;;;;;6.18;1.52;;;19.60;53.10;21.80;94048.00;;;;10514280;28;45275;-59
2022/09/18 11:47:36;;;;;;;4.32;1.17;;;19.60;53.10;21.80;94036.00;;;;10528700;27;45199;-59
2022/09/18 11:53:01;;;;;;;6.82;1.38;;;19.60;53.00;21.80;94016.00;;;;10532755;27;45189;-59
2022/09/18 11:58:29;;;;;;;9.10;1.58;;;19.60;53.00;21.80;94026.00;;;;10526413;27;45231;-59
2022/09/18 12:04:00;;;;;;;4.03;1.40;;;19.60;53.20;21.80;94017.00;;;;10519566;27;45831;-59
2022/09/18 12:09:28;;;;;;;7.18;1.30;;;19.60;53.10;21.80;94014.00;;;;10510853;27;45205;-59
2022/09/18 12:14:58;;;;;;;5.90;1.30;;;19.60;53.00;21.80;94003.00;;;;10510924;27;45816;-60
2022/09/18 12:20:26;;;;;;;3.03;1.10;;;19.60;53.00;21.80;94004.00;;;;10509890;27;45203;-59
2022/09/18 12:25:59;;;;;;;7.22;1.52;;;19.60;52.90;21.80;93996.00;;;;10524758;27;45232;-60
2022/09/18 12:31:27;;;;;;;5.50;1.05;;;19.60;52.80;21.80;93998.00;;;;10553171;27;45294;-59
2022/09/18 12:37:07;;;;;;;4.05;0.90;;;19.60;52.70;21.80;94005.00;;;;10558072;27;45340;-59
2022/09/18 12:42:42;;;;;;;5.22;1.38;;;19.60;52.50;21.70;93994.00;;;;10524750;27;45390;-59
2022/09/18 12:48:21;;;;;;;2.45;0.70;;;19.60;52.30;21.70;94003.00;;;;10532508;27;45213;-59
2022/09/18 12:53:56;;;;;;;4.22;0.80;;;19.50;52.30;21.70;93992.00;;;;10519647;27;45189;-58
2022/09/18 12:59:55;;;;;;;4.53;0.77;;;19.50;52.10;21.70;93993.00;;;;10536954;27;45176;-58
2022/09/18 13:05:21;;;;;;;3.28;0.88;;;19.50;52.10;21.70;93985.00;;;;10532472;27;45092;-58
2022/09/18 13:10:45;;;;;;;2.90;1.10;;;19.50;52.00;21.70;93975.00;;;;10517774;27;45809;-59
2022/09/18 13:16:12;;;;;;;3.08;0.73;;;19.50;51.90;21.70;93979.00;;;;10518068;28;45862;-58
2022/09/18 13:21:36;;;;;;;;;;;19.50;51.80;21.70;93964.00;;;;10517776;27;45684;-59
2022/09/18 13:27:00;;;;;;;2.63;0.70;;;19.50;51.90;21.70;93960.00;;;;10539388;27;45147;-59
2022/09/18 13:32:24;;;;;;;4.82;1.00;;;19.50;51.80;21.70;93956.00;;;;10555749;27;45117;-59
2022/09/18 13:37:45;;;;;;;3.47;0.75;;;19.50;51.80;21.70;93941.00;;;;10517418;27;45318;-59
2022/09/18 13:43:43;;;;;;;2.63;0.77;;;19.60;51.80;21.80;93930.00;;;;10517421;27;45229;-59
2022/09/18 13:49:18;;;;;;;;;;;19.60;51.50;21.80;93923.00;;;;10517023;28;45857;-59
2022/09/18 13:54:39;;;;;;;2.22;0.90;;;19.60;51.50;21.80;93930.00;;;;10518980;27;45166;-59
2022/09/18 14:00:06;;;;;;;3.10;0.88;;;19.60;51.50;21.80;93926.00;;;;10542319;27;45192;-59
2022/09/18 14:05:33;;;;;;;2.13;0.50;;;19.60;51.60;21.80;93916.00;;;;10558974;27;45854;-60
2022/09/18 14:11:06;;;;;;;1.98;0.60;;;19.60;51.60;21.80;93932.00;;;;10558606;27;45738;-58
2022/09/18 14:16:34;;;;;;;4.00;0.82;;;19.60;51.60;21.80;93907.00;;;;10542854;27;45858;-59
2022/09/18 14:21:54;;;;;;;2.60;0.90;;;19.60;51.60;21.80;93928.00;;;;10511536;28;45311;-60
2022/09/18 14:27:55;;;;;;;2.90;0.60;;;19.60;51.60;21.70;93919.00;;;;10527730;27;46241;-59
2022/09/18 14:33:22;;;;;;;1.65;0.68;;;19.60;51.60;21.70;93924.00;;;;10529876;27;45207;-59
2022/09/18 14:38:43;;;;;;;5.28;0.57;;;19.50;51.70;21.70;93926.00;;;;10521717;27;45288;-59
2022/09/18 14:44:05;;;;;;;2.28;0.50;;;19.50;51.60;21.70;93925.00;;;;10513409;27;45211;-59
2022/09/18 14:49:34;;;;;;;2.55;0.73;;;19.50;51.60;21.70;93932.00;;;;10512472;27;45918;-59
2022/09/18 14:54:58;;;;;;;2.00;0.50;;;19.50;51.70;21.70;93925.00;;;;10514217;27;45407;-59
2022/09/18 15:00:21;;;;;;;2.10;0.52;;;19.50;51.50;21.70;93926.00;;;;10520506;27;45641;-59
2022/09/18 15:05:44;;;;;;;1.13;0.40;;;19.50;51.60;21.70;93925.00;;;;10512076;27;45211;-59
2022/09/18 15:11:05;;;;;;;1.25;0.50;;;19.50;51.30;21.60;93923.00;;;;10512865;27;46039;-60
2022/09/18 15:16:30;;;;;;;3.10;0.55;;;19.50;51.30;21.70;93903.00;;;;10512409;27;45746;-59
2022/09/18 15:21:53;;;;;;;1.17;0.32;;;19.50;51.40;21.60;93914.00;;;;10511951;27;45396;-59
2022/09/18 15:27:14;;;;;;;2.60;0.50;;;19.50;51.30;21.60;93902.00;;;;10536954;27;45834;-59
2022/09/18 15:32:41;;;;;;;2.22;0.45;;;19.50;51.30;21.60;93891.00;;;;10551124;27;45419;-59
2022/09/18 15:38:05;;;;;;;;;;;19.40;51.10;21.60;93913.00;;;;10512270;27;45384;-59
2022/09/18 15:43:42;;;;;;;1.20;0.35;;;19.50;51.20;21.60;93914.00;;;;10510614;27;45201;-59
2022/09/18 15:49:26;;;;;;;0.82;0.40;;;19.40;51.70;21.60;93912.00;;;;10521306;27;45279;-58
2022/09/18 15:55:05;;;;;;;2.15;0.40;;;19.40;51.20;21.70;93907.00;;;;10524606;27;45154;-60
2022/09/18 16:00:28;;;;;;;1.58;0.52;;;19.50;51.20;21.70;93915.00;;;;10546124;27;45268;-59
2022/09/18 16:05:55;;;;;;;1.10;0.40;;;19.50;51.20;21.70;93915.00;;;;10523164;27;45251;-59
2022/09/18 16:11:43;;;;;;;2.85;0.40;;;19.50;51.20;21.70;93912.00;;;;10520812;27;45115;-59
2022/09/18 16:17:39;;;;;;;1.10;0.40;;;19.50;51.20;21.80;93902.00;;;;10519055;27;45402;-59
2022/09/18 16:23:19;;;;;;;0.77;0.28;;;19.60;51.30;21.80;93901.00;;;;10549938;27;45312;-59
2022/09/18 16:28:46;;;;;;;0.95;0.35;;;19.60;51.30;21.80;93908.00;;;;10548900;27;45193;-59
2022/09/18 16:34:22;;;;;;;2.10;0.47;;;19.60;51.30;21.80;93900.00;;;;10545941;27;45125;-59
2022/09/18 16:39:43;;;;;;;1.25;0.50;;;19.70;51.40;21.80;93890.00;;;;10522194;27;45206;-60
2022/09/18 16:45:07;;;;;;;0.80;0.30;;;19.70;51.50;21.80;93872.00;;;;10521304;27;45782;-59
2022/09/18 16:50:28;;;;;;;0.75;0.20;;;19.70;51.40;21.80;93881.00;;;;10548940;27;45340;-59
2022/09/18 16:55:55;;;;;;;1.20;0.40;;;19.70;51.40;21.90;93899.00;;;;10539181;27;45708;-58
2022/09/18 17:01:21;;;;;;;0.68;0.22;;;19.70;51.40;21.90;93905.00;;;;10549233;27;45850;-60
2022/09/18 17:06:42;;;;;;;1.35;0.22;;;19.70;51.40;21.90;93897.00;;;;10534904;27;45173;-59
2022/09/18 17:12:04;;;;;;;0.65;0.30;;;19.70;51.40;21.90;93903.00;;;;10541791;27;45688;-58
2022/09/18 17:17:26;;;;;;;1.10;0.40;;;19.70;51.40;21.90;93902.00;;;;10534246;27;45183;-59
2022/09/18 17:22:47;;;;;;;0.73;0.30;;;19.70;51.40;21.90;93883.00;;;;10549778;27;45156;-59
2022/09/18 17:28:09;;;;;;;1.40;0.38;;;19.80;51.50;21.90;93902.00;;;;10555518;27;45149;-60
2022/09/18 17:33:30;;;;;;;0.77;0.40;;;19.70;52.10;21.90;93903.00;;;;10545707;27;45790;-61
2022/09/18 17:38:51;;;;;;;1.55;0.35;;;19.80;51.50;21.90;93911.00;;;;10533189;27;45216;-59
2022/09/18 17:44:11;;;;;;;2.03;0.30;;;19.80;51.50;21.90;93911.00;;;;10520533;27;45958;-60
2022/09/18 17:49:34;;;;;;;1.30;0.20;;;19.80;51.50;21.90;93906.00;;;;10519766;28;45699;-59
2022/09/18 17:54:54;;;;;;;0.60;0.30;;;19.80;51.50;22.00;93932.00;;;;10546987;27;45193;-59
2022/09/18 18:00:15;;;;;;;0.90;0.28;;;19.80;51.50;21.90;93925.00;;;;10553491;27;45883;-59
2022/09/18 18:05:38;;;;;;;0.50;0.28;;;19.80;51.50;22.00;93925.00;;;;10524772;27;45150;-60
2022/09/18 18:11:04;;;;;;;1.20;0.32;;;19.80;51.50;22.00;93932.00;;;;10533777;27;45143;-59
2022/09/18 18:16:29;;;;;;;0.40;0.20;;;19.80;51.50;22.00;93919.00;;;;10528817;27;45774;-59
2022/09/18 18:21:51;;;;;;;0.30;0.20;;;19.80;51.50;22.00;93930.00;;;;10529142;27;45613;-59
2022/09/18 18:27:12;;;;;;;0.40;0.20;;;19.80;51.40;22.00;93936.00;;;;10553058;27;45960;-59
2022/09/18 18:32:33;;;;;;;0.57;0.20;;;19.80;51.40;22.00;93950.00;;;;10543932;27;45276;-59
2022/09/18 18:37:55;;;;;;;0.85;0.38;;;19.80;51.50;22.00;93937.00;;;;10534270;27;45286;-59
2022/09/18 18:43:16;;;;;;;0.45;0.20;;;19.80;51.50;22.00;93956.00;;;;10514186;27;45707;-59
2022/09/18 18:48:37;;;;;;;0.68;0.20;;;19.80;51.50;22.00;93957.00;;;;10527281;27;45798;-59
2022/09/18 18:54:01;;;;;;;0.32;0.15;;;19.80;51.50;22.00;93956.00;;;;10514801;27;45263;-59
2022/09/18 18:59:23;;;;;;;0.77;0.10;;;19.80;51.40;22.00;93963.00;;;;10527289;27;45430;-59
2022/09/18 19:04:43;;;;;;;0.47;0.20;;;19.80;51.40;22.00;93967.00;;;;10527926;27;45266;-58
2022/09/18 19:10:06;;;;;;;0.55;0.20;;;19.80;51.40;22.00;93970.00;;;;10531976;27;45870;-59
2022/09/18 19:15:28;;;;;;;0.22;0.10;;;19.80;51.50;22.00;93966.00;;;;10556840;27;45143;-59
2022/09/18 19:20:52;;;;;;;0.10;0.10;;;19.80;51.50;22.00;93979.00;;;;10514941;27;45350;-60
2022/09/18 19:26:14;;;;;;;1.00;0.08;;;19.80;51.50;22.00;93964.00;;;;10531066;27;46000;-60
2022/09/18 19:31:37;;;;;;;1.27;0.20;;;19.80;51.40;22.00;93947.00;;;;10539066;27;45277;-59
2022/09/18 19:36:58;;;;;;;0.65;0.30;;;19.80;51.40;22.00;93955.00;;;;10530340;27;45835;-59
2022/09/18 19:42:27;;;;;;;0.10;0.10;;;19.90;51.50;22.00;93955.00;;;;10522739;27;45365;-59
2022/09/18 19:47:49;;;;;;;0.50;0.15;;;19.80;51.40;22.00;93943.00;;;;10538488;27;45266;-60
2022/09/18 19:53:09;;;;;;;0.65;0.10;;;19.80;51.40;22.00;93956.00;;;;10528857;27;45276;-59
2022/09/18 19:58:33;;;;;;;0.38;0.28;;;19.80;51.40;22.00;93946.00;;;;10526845;27;45229;-59
2022/09/18 20:03:55;;;;;;;0.60;0.20;;;19.80;51.40;22.00;93952.00;;;;10540683;27;45769;-59
2022/09/18 20:09:15;;;;;;;0.20;0.10;;;19.90;51.40;22.00;93950.00;;;;10525707;27;45197;-58
2022/09/18 20:14:37;;;;;;;0.63;0.20;;;19.90;51.30;22.00;93953.00;;;;10541027;27;45248;-59
2022/09/18 20:19:58;;;;;;;0.20;0.10;;;19.80;51.30;22.00;93954.00;;;;10541658;27;45165;-60
2022/09/18 20:25:18;;;;;;;0.10;0.10;;;19.80;51.30;22.00;93947.00;;;;10540695;27;45137;-59
2022/09/18 20:30:40;;;;;;;0.40;0.20;;;19.80;51.30;22.00;93933.00;;;;10525573;27;45848;-59
2022/09/18 20:36:01;;;;;;;0.10;0.10;;;19.80;51.20;21.90;93933.00;;;;10553876;27;45290;-60
2022/09/18 20:41:23;;;;;;;0.30;0.20;;;19.80;51.90;21.90;93936.00;;;;10545394;27;45280;-59
2022/09/18 20:46:44;;;;;;;0.60;0.20;;;19.70;51.20;21.90;93928.00;;;;10525397;27;45174;-61
2022/09/18 20:52:05;;;;;;;0.45;0.25;;;19.70;51.20;21.90;93924.00;;;;10549868;27;45348;-59
2022/09/18 20:57:25;;;;;;;0.00;0.00;;;19.60;51.20;21.80;93922.00;;;;10531835;27;45758;-59
2022/09/18 21:02:52;;;;;;;0.25;0.10;;;19.60;51.30;21.80;93914.00;;;;10532058;27;45341;-60
2022/09/18 21:08:13;;;;;;;0.55;0.20;;;19.50;51.20;21.70;93913.00;;;;10520733;27;45152;-59
2022/09/18 21:13:34;;;;;;;0.50;0.10;;;19.50;51.20;21.70;93925.00;;;;10528391;27;45158;-59
2022/09/18 21:18:59;;;;;;;0.60;0.10;;;19.50;51.30;21.70;93932.00;;;;10556638;27;45443;-59
2022/09/18 21:24:20;;;;;;;0.30;0.10;;;19.40;51.20;21.60;93920.00;;;;10517133;27;45266;-59
2022/09/18 21:29:41;;;;;;;0.30;0.10;;;19.40;51.20;21.60;93936.00;;;;10530985;27;45199;-59
2022/09/18 21:35:03;;;;;;;1.25;0.13;;;19.40;51.90;21.60;93935.00;;;;10537645;27;45758;-59
2022/09/18 21:40:23;;;;;;;0.50;0.20;;;19.40;51.20;21.50;93939.00;;;;10517099;27;45477;-59
2022/09/18 21:45:44;;;;;;;0.60;0.20;;;19.30;51.30;21.50;93944.00;;;;10516427;27;45692;-61
2022/09/18 21:51:08;;;;;;;0.15;0.10;;;19.30;51.30;21.50;93916.00;;;;10530912;27;45289;-59
2022/09/18 21:56:29;;;;;;;0.20;0.10;;;19.20;51.20;21.50;93933.00;;;;10516300;27;45793;-59
2022/09/18 22:01:53;;;;;;;0.43;0.20;;;19.20;51.30;21.40;93925.00;;;;10543734;27;45798;-59
2022/09/18 22:07:16;;;;;;;0.20;0.20;;;19.20;51.40;21.40;93935.00;;;;10529174;27;45174;-59
2022/09/18 22:12:37;;;;;;;0.10;0.10;;;19.20;51.40;21.40;93942.00;;;;10515611;27;45259;-59
2022/09/18 22:17:58;;;;;;;0.57;0.20;;;19.10;51.30;21.30;93936.00;;;;10529399;27;45804;-60
2022/09/18 22:23:20;;;;;;;0.50;0.20;;;19.10;51.40;21.30;93929.00;;;;10515375;27;45889;-58
2022/09/18 22:28:41;;;;;;;0.17;0.15;;;19.10;51.40;21.30;93941.00;;;;10526032;27;45758;-59
2022/09/18 22:34:01;;;;;;;0.43;0.20;;;19.10;51.40;21.30;93937.00;;;;10543509;27;45195;-59
2022/09/18 22:39:23;;;;;;;0.20;0.10;;;19.10;51.30;21.30;93920.00;;;;10538787;27;45204;-59
2022/09/18 22:44:44;;;;;;;0.38;0.17;;;19.00;51.30;21.20;93937.00;;;;10514596;27;45223;-59
2022/09/18 22:50:06;;;;;;;0.38;0.17;;;19.00;51.40;21.20;93934.00;;;;10514317;27;45780;-59
2022/09/18 22:55:28;;;;;;;0.47;0.10;;;19.00;51.40;21.20;93924.00;;;;10521929;27;45758;-59
2022/09/18 23:00:48;;;;;;;0.60;0.20;;;18.90;51.50;21.10;93936.00;;;;10513557;27;45234;-59
2022/09/18 23:06:09;;;;;;;0.80;0.30;;;18.90;51.50;21.10;93930.00;;;;10512717;27;44939;-61
2022/09/18 23:11:34;;;;;;;0.40;0.10;;;18.90;51.50;21.10;93942.00;;;;10511486;27;45242;-59
2022/09/18 23:16:56;;;;;;;0.32;0.13;;;18.90;51.60;21.10;93946.00;;;;10510453;27;45890;-60
2022/09/18 23:22:16;;;;;;;0.20;0.10;;;18.90;51.60;21.00;93934.00;;;;10511291;27;45228;-60
2022/09/18 23:27:38;;;;;;;0.63;0.10;;;18.90;51.60;21.00;93939.00;;;;10541410;27;45207;-60
2022/09/18 23:32:59;;;;;;;0.65;0.20;;;18.80;51.70;21.00;93951.00;;;;10544388;27;45273;-59
2022/09/18 23:38:20;;;;;;;0.22;0.10;;;18.90;51.70;21.00;93949.00;;;;10521976;27;45469;-59
2022/09/18 23:43:46;;;;;;;0.10;0.10;;;18.80;51.70;21.00;93948.00;;;;10510630;27;45243;-59
2022/09/18 23:49:08;;;;;;;0.30;0.17;;;18.80;51.80;21.00;93948.00;;;;10510243;27;45237;-60